createdAt,value
2023-05-10T00:00:16.282Z,92169.29
2023-05-10T00:03:06.049Z,92171.10
2023-05-10T00:05:34.208Z,92169.70
2023-05-10T00:08:02.290Z,92166.65
2023-05-10T00:10:30.380Z,92167.48
2023-05-10T00:12:58.476Z,92164.55
2023-05-10T00:15:26.610Z,92161.36
2023-05-10T00:17:54.770Z,92162.27
2023-05-10T00:20:22.889Z,92159.27
2023-05-10T00:22:50.900Z,92160.25
2023-05-10T00:25:18.965Z,92161.66
2023-05-10T00:27:47.056Z,92157.03
2023-05-10T00:30:15.386Z,92155.01
2023-05-10T00:32:44.668Z,92154.25
2023-05-10T00:35:12.774Z,92153.66
2023-05-10T00:37:41.403Z,92154.02
2023-05-10T00:40:09.763Z,92154.73
2023-05-10T00:42:37.867Z,92154.16
2023-05-10T00:45:06.442Z,92151.33
2023-05-10T00:47:35.201Z,92151.95
2023-05-10T00:50:03.964Z,92150.90
2023-05-10T00:52:32.187Z,92154.61
2023-05-10T00:55:01.238Z,92155.14
2023-05-10T00:57:29.647Z,92157.13
2023-05-10T00:59:58.141Z,92157.10
2023-05-10T01:02:26.526Z,92154.30
2023-05-10T01:04:55.418Z,92155.89
2023-05-10T01:07:23.535Z,92155.64
2023-05-10T01:09:51.746Z,92156.67
2023-05-10T01:12:19.966Z,92150.86
2023-05-10T01:14:48.380Z,92152.22
2023-05-10T01:17:17.475Z,92150.45
2023-05-10T01:19:45.641Z,92148.25
2023-05-10T01:22:41.711Z,92152.84
2023-05-10T01:25:21.034Z,92151.16
2023-05-10T01:27:49.071Z,92150.98
2023-05-10T01:30:29.567Z,92147.72
2023-05-10T01:33:16.573Z,92143.06
2023-05-10T01:35:56.653Z,92136.54
2023-05-10T01:38:30.800Z,92135.65
2023-05-10T01:40:59.882Z,92134.36
2023-05-10T01:43:32.308Z,92134.48
2023-05-10T01:46:05.767Z,92133.67
2023-05-10T01:48:34.753Z,92128.66
2023-05-10T01:51:03.123Z,92122.44
2023-05-10T01:53:32.721Z,92121.80
2023-05-10T01:56:01.893Z,92122.58
2023-05-10T01:58:32.690Z,92116.86
2023-05-10T02:01:02.603Z,92116.09
2023-05-10T02:03:32.306Z,92114.89
2023-05-10T02:06:00.906Z,92112.38
2023-05-10T02:08:29.453Z,92114.34
2023-05-10T02:10:59.822Z,92114.83
2023-05-10T02:13:30.925Z,92110.14
2023-05-10T02:16:00.044Z,92114.31
2023-05-10T02:18:28.768Z,92112.95
2023-05-10T02:20:57.654Z,92115.08
2023-05-10T02:23:26.838Z,92111.29
2023-05-10T02:25:56.146Z,92106.41
2023-05-10T02:28:27.985Z,92104.19
2023-05-10T02:30:57.375Z,92102.59
2023-05-10T02:33:26.799Z,92102.40
2023-05-10T02:35:55.980Z,92103.15
2023-05-10T02:38:25.492Z,92106.27
2023-05-10T02:40:53.920Z,92107.09
2023-05-10T02:43:24.332Z,92105.23
2023-05-10T02:45:52.710Z,92106.95
2023-05-10T02:48:20.783Z,92106.90
2023-05-10T02:50:52.509Z,92106.16
2023-05-10T02:53:23.348Z,92110.61
2023-05-10T02:55:52.949Z,92104.89
2023-05-10T02:58:21.917Z,92103.09
2023-05-10T03:00:49.970Z,92103.80
2023-05-10T03:03:18.005Z,92103.05
2023-05-10T03:05:46.208Z,92103.21
2023-05-10T03:08:14.358Z,92101.27
2023-05-10T03:11:00.941Z,92102.80
2023-05-10T03:13:55.486Z,92099.15
2023-05-10T03:16:28.537Z,92098.19
2023-05-10T03:19:23.040Z,92100.17
2023-05-10T03:21:53.781Z,92102.17
2023-05-10T03:24:23.413Z,92102.84
2023-05-10T03:26:51.917Z,92101.59
2023-05-10T03:29:21.351Z,92103.84
2023-05-10T03:31:49.544Z,92102.82
2023-05-10T03:34:18.511Z,92108.95
2023-05-10T03:36:46.480Z,92107.65
2023-05-10T03:39:14.578Z,92105.23
2023-05-10T03:41:42.710Z,92104.48
2023-05-10T03:44:10.990Z,92106.27
2023-05-10T03:46:39.103Z,92105.77
2023-05-10T03:49:07.510Z,92106.89
2023-05-10T03:51:35.665Z,92107.10
2023-05-10T03:54:03.964Z,92108.08
2023-05-10T03:56:32.203Z,92104.81
2023-05-10T03:59:00.659Z,92100.89
2023-05-10T04:01:28.750Z,92102.80
2023-05-10T04:03:57.092Z,92102.59
2023-05-10T04:06:25.301Z,92102.41
2023-05-10T04:08:54.059Z,92101.41
2023-05-10T04:11:23.059Z,92102.13
2023-05-10T04:13:51.263Z,92108.48
2023-05-10T04:16:19.504Z,92106.14
2023-05-10T04:18:47.659Z,92102.70
2023-05-10T04:21:15.886Z,92103.05
2023-05-10T04:23:44.123Z,92098.60
2023-05-10T04:26:12.474Z,92097.14
2023-05-10T04:28:40.633Z,92098.38
2023-05-10T04:31:10.152Z,92098.23
2023-05-10T04:33:38.396Z,92099.71
2023-05-10T04:36:06.823Z,92102.53
2023-05-10T04:38:34.882Z,92101.60
2023-05-10T04:41:07.375Z,92097.93
2023-05-10T04:43:35.712Z,92103.73
2023-05-10T04:46:04.009Z,92100.38
2023-05-10T04:48:32.268Z,92103.35
2023-05-10T04:51:00.470Z,92103.41
2023-05-10T04:53:28.648Z,92099.98
2023-05-10T04:55:56.661Z,92103.59
2023-05-10T04:58:24.965Z,92102.89
2023-05-10T05:00:53.118Z,92102.52
2023-05-10T05:03:24.558Z,92106.20
2023-05-10T05:05:52.815Z,92098.50
2023-05-10T05:08:20.874Z,92097.33
2023-05-10T05:10:51.244Z,92093.16
2023-05-10T05:13:19.766Z,92094.17
2023-05-10T05:15:48.044Z,92093.30
2023-05-10T05:18:16.211Z,92086.35
2023-05-10T05:20:44.204Z,92085.77
2023-05-10T05:23:12.254Z,92084.51
2023-05-10T05:25:40.274Z,92081.04
2023-05-10T05:28:08.713Z,92080.67
2023-05-10T05:30:36.710Z,92081.91
2023-05-10T05:33:05.225Z,92083.04
2023-05-10T05:35:33.424Z,92080.58
2023-05-10T05:38:01.501Z,92079.50
2023-05-10T05:40:29.538Z,92072.23
2023-05-10T05:42:57.553Z,92074.06
2023-05-10T05:45:25.675Z,92071.11
2023-05-10T05:47:53.870Z,92068.27
2023-05-10T05:50:21.980Z,92070.79
2023-05-10T05:52:50.073Z,92070.63
2023-05-10T05:55:18.784Z,92073.16
2023-05-10T05:57:46.946Z,92071.90
2023-05-10T06:00:15.239Z,92074.52
2023-05-10T06:02:43.370Z,92078.73
2023-05-10T06:05:11.541Z,92079.48
2023-05-10T06:07:40.825Z,92077.41
2023-05-10T06:10:09.624Z,92076.62
2023-05-10T06:12:37.715Z,92077.23
2023-05-10T06:15:06.183Z,92075.25
2023-05-10T06:17:34.197Z,92078.90
2023-05-10T06:20:02.491Z,92075.14
2023-05-10T06:22:30.732Z,92080.14
2023-05-10T06:24:58.861Z,92083.52
2023-05-10T06:27:27.141Z,92083.66
2023-05-10T06:30:01.999Z,92081.86
2023-05-10T06:32:37.605Z,92085.55
2023-05-10T06:35:06.087Z,92086.20
2023-05-10T06:37:34.353Z,92083.97
2023-05-10T06:40:03.427Z,92084.43
2023-05-10T06:42:31.485Z,92079.80
2023-05-10T06:44:59.599Z,92078.82
2023-05-10T06:47:27.695Z,92077.23
2023-05-10T06:49:56.937Z,92074.52
2023-05-10T06:52:24.999Z,92075.42
2023-05-10T06:54:53.115Z,92076.42
2023-05-10T06:57:31.305Z,92076.40
2023-05-10T07:00:00.311Z,92079.35
2023-05-10T07:02:28.648Z,92076.09
2023-05-10T07:04:58.426Z,92077.62
2023-05-10T07:07:28.301Z,92076.45
2023-05-10T07:09:57.634Z,92080.08
2023-05-10T07:12:25.948Z,92079.75
2023-05-10T07:14:53.948Z,92080.54
2023-05-10T07:17:22.084Z,92075.30
2023-05-10T07:19:50.215Z,92074.42
2023-05-10T07:22:18.334Z,92075.20
2023-05-10T07:24:46.608Z,92075.89
2023-05-10T07:27:14.819Z,92072.84
2023-05-10T07:29:43.289Z,92073.59
2023-05-10T07:32:11.498Z,92075.60
2023-05-10T07:34:39.617Z,92077.42
2023-05-10T07:37:08.501Z,92079.33
2023-05-10T07:39:36.514Z,92083.96
2023-05-10T07:42:04.577Z,92082.71
2023-05-10T07:44:32.641Z,92083.96
2023-05-10T07:47:00.708Z,92082.63
2023-05-10T07:49:28.711Z,92086.08
2023-05-10T07:51:56.864Z,92085.03
2023-05-10T07:54:25.076Z,92088.16
2023-05-10T07:56:53.266Z,92085.76
2023-05-10T07:59:21.974Z,92090.43
2023-05-10T08:01:50.055Z,92088.30
2023-05-10T08:04:18.358Z,92081.92
2023-05-10T08:06:46.477Z,92083.64
2023-05-10T08:09:14.708Z,92085.90
2023-05-10T08:11:42.832Z,92086.98
2023-05-10T08:14:11.010Z,92083.52
2023-05-10T08:16:39.231Z,92086.48
2023-05-10T08:19:07.565Z,92086.09
2023-05-10T08:21:35.816Z,92088.38
2023-05-10T08:24:03.981Z,92086.96
2023-05-10T08:26:32.039Z,92091.50
2023-05-10T08:29:00.433Z,92092.89
2023-05-10T08:31:28.566Z,92098.83
2023-05-10T08:33:56.712Z,92092.98
2023-05-10T08:36:25.529Z,92096.77
2023-05-10T08:38:53.997Z,92092.05
2023-05-10T08:41:22.861Z,92091.86
2023-05-10T08:43:51.738Z,92096.30
2023-05-10T08:46:20.533Z,92095.62
2023-05-10T08:48:49.407Z,92088.30
2023-05-10T08:51:22.312Z,92087.39
2023-05-10T08:53:50.603Z,92085.27
2023-05-10T08:56:18.988Z,92089.14
2023-05-10T08:58:47.063Z,92086.69
2023-05-10T09:01:16.982Z,92084.98
2023-05-10T09:03:47.161Z,92089.81
2023-05-10T09:06:15.608Z,92089.73
2023-05-10T09:08:44.038Z,92090.42
2023-05-10T09:11:13.033Z,92090.02
2023-05-10T09:13:41.324Z,92093.77
2023-05-10T09:16:20.398Z,92091.48
2023-05-10T09:18:50.834Z,92089.27
2023-05-10T09:21:20.525Z,92081.06
2023-05-10T09:23:51.324Z,92085.25
2023-05-10T09:26:23.423Z,92079.75
2023-05-10T09:28:52.480Z,92075.80
2023-05-10T09:31:20.934Z,92070.60
2023-05-10T09:33:49.896Z,92071.70
2023-05-10T09:36:18.174Z,92067.89
2023-05-10T09:38:50.132Z,92064.02
2023-05-10T09:41:22.279Z,92062.66
2023-05-10T09:43:50.607Z,92054.20
2023-05-10T09:46:18.924Z,92055.26
2023-05-10T09:48:48.669Z,92059.80
2023-05-10T09:51:23.444Z,92057.07
2023-05-10T09:54:10.264Z,92061.46
2023-05-10T09:56:40.821Z,92066.41
2023-05-10T09:59:10.775Z,92066.92
2023-05-10T10:01:39.189Z,92062.80
2023-05-10T10:04:08.475Z,92058.48
2023-05-10T10:06:39.917Z,92058.20
2023-05-10T10:09:08.292Z,92059.14
2023-05-10T10:11:37.531Z,92055.94
2023-05-10T10:14:06.258Z,92053.70
2023-05-10T10:16:34.529Z,92053.78
2023-05-10T10:19:02.982Z,92053.26
2023-05-10T10:21:32.148Z,92056.52
2023-05-10T10:24:00.218Z,92055.18
2023-05-10T10:26:28.387Z,92053.39
2023-05-10T10:29:14.831Z,92051.39
2023-05-10T10:31:47.386Z,92047.87
2023-05-10T10:34:26.844Z,92049.08
2023-05-10T10:36:55.610Z,92048.67
2023-05-10T10:39:24.154Z,92046.92
2023-05-10T10:41:52.391Z,92053.98
2023-05-10T10:44:26.282Z,92054.83
2023-05-10T10:47:03.723Z,92051.52
2023-05-10T10:49:33.298Z,92051.02
2023-05-10T10:52:17.161Z,92049.67
2023-05-10T10:54:50.993Z,92049.77
2023-05-10T10:57:19.644Z,92048.80
2023-05-10T10:59:47.741Z,92050.73
2023-05-10T11:02:35.257Z,92051.52
2023-05-10T11:05:22.449Z,92049.58
2023-05-10T11:07:55.162Z,92045.23
2023-05-10T11:10:24.016Z,92043.54
2023-05-10T11:13:11.243Z,92038.02
2023-05-10T11:15:40.385Z,92039.20
2023-05-10T11:18:22.469Z,92037.27
2023-05-10T11:20:56.752Z,92035.74
2023-05-10T11:23:24.858Z,92030.30
2023-05-10T11:25:53.042Z,92031.30
2023-05-10T11:28:21.839Z,92028.73
2023-05-10T11:30:49.919Z,92028.19
2023-05-10T11:33:18.534Z,92026.63
2023-05-10T11:35:46.744Z,92024.20
2023-05-10T11:38:15.325Z,92019.73
2023-05-10T11:40:43.751Z,92022.59
2023-05-10T11:43:12.396Z,92021.41
2023-05-10T11:45:43.584Z,92021.82
2023-05-10T11:48:11.720Z,92020.62
2023-05-10T11:50:39.838Z,92024.69
2023-05-10T11:53:08.542Z,92022.93
2023-05-10T11:55:36.673Z,92022.41
2023-05-10T11:58:04.864Z,92023.39
2023-05-10T12:00:32.981Z,92017.79
2023-05-10T12:03:01.912Z,92017.22
2023-05-10T12:05:32.702Z,92019.96
2023-05-10T12:08:16.694Z,92015.50
2023-05-10T12:10:44.727Z,92015.16
2023-05-10T12:13:14.957Z,92008.69
2023-05-10T12:15:43.665Z,92004.55
2023-05-10T12:18:12.864Z,91997.27
2023-05-10T12:20:41.666Z,91997.34
2023-05-10T12:23:11.161Z,91998.06
2023-05-10T12:25:40.131Z,91988.48
2023-05-10T12:28:09.530Z,91994.79
2023-05-10T12:30:37.881Z,91993.48
2023-05-10T12:33:09.984Z,91994.10
2023-05-10T12:35:48.326Z,91990.91
2023-05-10T12:38:35.535Z,91989.63
2023-05-10T12:41:04.899Z,91986.05
2023-05-10T12:43:33.192Z,91984.41
2023-05-10T12:46:11.272Z,91983.27
2023-05-10T12:48:40.115Z,91984.27
2023-05-10T12:51:12.943Z,91987.73
2023-05-10T12:53:43.694Z,91986.55
2023-05-10T12:56:12.777Z,91988.09
2023-05-10T12:58:40.827Z,91984.03
2023-05-10T13:01:09.569Z,91983.54
2023-05-10T13:03:37.784Z,91986.11
2023-05-10T13:06:06.623Z,91982.34
2023-05-10T13:08:34.878Z,91982.20
2023-05-10T13:11:03.339Z,91979.35
2023-05-10T13:13:31.381Z,91980.95
2023-05-10T13:15:59.609Z,91982.11
2023-05-10T13:18:27.948Z,91981.10
2023-05-10T13:20:56.885Z,91973.83
2023-05-10T13:23:24.997Z,91973.34
2023-05-10T13:25:53.176Z,91965.39
2023-05-10T13:28:21.476Z,91965.45
2023-05-10T13:30:49.732Z,91967.84
2023-05-10T13:33:17.816Z,91956.94
2023-05-10T13:35:46.253Z,91958.48
2023-05-10T13:38:14.954Z,91955.14
2023-05-10T13:40:43.099Z,91956.39
2023-05-10T13:43:11.309Z,91953.55
2023-05-10T13:45:40.132Z,91952.92
2023-05-10T13:48:08.273Z,91943.01
2023-05-10T13:50:36.552Z,91939.09
2023-05-10T13:53:04.627Z,91938.61
2023-05-10T13:55:32.809Z,91932.58
2023-05-10T13:58:01.257Z,91938.32
2023-05-10T14:00:29.294Z,91939.59
2023-05-10T14:02:57.613Z,91938.45
2023-05-10T14:05:26.530Z,91927.95
2023-05-10T14:07:54.925Z,91931.38
2023-05-10T14:10:23.100Z,91928.35
2023-05-10T14:12:52.394Z,91936.84
2023-05-10T14:15:20.566Z,91933.42
2023-05-10T14:17:49.105Z,91934.33
2023-05-10T14:20:17.386Z,91935.02
2023-05-10T14:22:45.635Z,91935.66
2023-05-10T14:25:14.487Z,91937.19
2023-05-10T14:27:42.494Z,91941.45
2023-05-10T14:30:10.833Z,91945.05
2023-05-10T14:32:38.944Z,91941.95
2023-05-10T14:35:07.418Z,91943.73
2023-05-10T14:37:35.647Z,91946.30
2023-05-10T14:40:05.558Z,91946.02
2023-05-10T14:42:33.814Z,91945.69
2023-05-10T14:45:01.877Z,91946.59
2023-05-10T14:47:30.168Z,91947.45
2023-05-10T14:49:58.290Z,91945.04
2023-05-10T14:52:26.884Z,91947.77
2023-05-10T14:54:54.983Z,91944.89
2023-05-10T14:57:23.020Z,91940.06
2023-05-10T14:59:51.293Z,91942.45
2023-05-10T15:02:19.819Z,91939.09
2023-05-10T15:04:48.286Z,91939.22
2023-05-10T15:07:18.467Z,91938.34
2023-05-10T15:09:46.587Z,91937.23
2023-05-10T15:12:14.787Z,91933.39
2023-05-10T15:14:42.898Z,91937.39
2023-05-10T15:17:11.545Z,91933.80
2023-05-10T15:19:39.633Z,91932.98
2023-05-10T15:22:07.703Z,91931.53
2023-05-10T15:24:35.813Z,91929.52
2023-05-10T15:27:03.973Z,91931.92
2023-05-10T15:29:32.618Z,91931.63
2023-05-10T15:32:02.678Z,91928.87
2023-05-10T15:34:32.253Z,91931.47
2023-05-10T15:37:01.794Z,91933.86
2023-05-10T15:39:29.784Z,91933.20
2023-05-10T15:41:57.846Z,91935.19
2023-05-10T15:44:26.023Z,91934.77
2023-05-10T15:46:54.302Z,91933.92
2023-05-10T15:49:22.499Z,91933.23
2023-05-10T15:51:50.557Z,91940.36
2023-05-10T15:54:18.681Z,91936.25
2023-05-10T15:56:46.841Z,91938.48
2023-05-10T15:59:14.968Z,91938.41
2023-05-10T16:01:43.165Z,91941.26
2023-05-10T16:04:11.247Z,91944.91
2023-05-10T16:06:39.797Z,91942.27
2023-05-10T16:09:07.827Z,91940.73
2023-05-10T16:11:36.023Z,91943.29
2023-05-10T16:14:05.288Z,91947.29
2023-05-10T16:16:35.126Z,91943.67
2023-05-10T16:19:04.180Z,91946.02
2023-05-10T16:21:32.844Z,91943.06
2023-05-10T16:24:01.234Z,91943.98
2023-05-10T16:26:29.459Z,91946.35
2023-05-10T16:28:57.552Z,91948.77
2023-05-10T16:31:25.808Z,91949.21
2023-05-10T16:33:54.055Z,91955.56
2023-05-10T16:36:22.105Z,91961.36
2023-05-10T16:38:50.178Z,91964.23
2023-05-10T16:41:18.230Z,91966.60
2023-05-10T16:43:46.327Z,91966.87
2023-05-10T16:46:14.534Z,91971.59
2023-05-10T16:48:42.712Z,91978.73
2023-05-10T16:51:10.802Z,91979.02
2023-05-10T16:53:38.853Z,91985.38
2023-05-10T16:56:07.065Z,91988.18
2023-05-10T16:58:35.258Z,91983.86
2023-05-10T17:01:03.588Z,91983.58
2023-05-10T17:03:31.781Z,91986.79
2023-05-10T17:05:59.864Z,91983.92
2023-05-10T17:08:27.994Z,91985.38
2023-05-10T17:10:56.509Z,91988.64
2023-05-10T17:13:24.650Z,91990.42
2023-05-10T17:15:53.014Z,91993.02
2023-05-10T17:18:21.185Z,91994.59
2023-05-10T17:20:49.443Z,91990.18
2023-05-10T17:23:17.562Z,91992.36
2023-05-10T17:25:45.766Z,91993.13
2023-05-10T17:28:13.879Z,91994.48
2023-05-10T17:30:42.050Z,91993.25
2023-05-10T17:33:10.097Z,91996.27
2023-05-10T17:35:38.236Z,92000.06
2023-05-10T17:38:06.358Z,92002.84
2023-05-10T17:40:34.387Z,92004.81
2023-05-10T17:43:02.456Z,92005.58
2023-05-10T17:45:30.635Z,92008.54
2023-05-10T17:47:58.812Z,92007.19
2023-05-10T17:50:27.043Z,92007.34
2023-05-10T17:52:55.270Z,92016.00
2023-05-10T17:55:23.306Z,92017.23
2023-05-10T17:57:52.063Z,92018.50
2023-05-10T18:00:20.465Z,92023.09
2023-05-10T18:02:48.488Z,92025.94
2023-05-10T18:05:16.966Z,92029.67
2023-05-10T18:07:45.533Z,92030.63
2023-05-10T18:10:13.722Z,92036.02
2023-05-10T18:12:41.924Z,92038.49
2023-05-10T18:15:10.440Z,92039.89
2023-05-10T18:17:38.635Z,92043.77
2023-05-10T18:20:07.547Z,92041.32
2023-05-10T18:22:36.113Z,92047.77
2023-05-10T18:25:04.698Z,92050.88
2023-05-10T18:27:32.890Z,92053.25
2023-05-10T18:30:00.975Z,92057.34
2023-05-10T18:32:29.189Z,92062.55
2023-05-10T18:34:57.871Z,92068.16
2023-05-10T18:37:25.970Z,92069.77
2023-05-10T18:39:54.099Z,92069.12
2023-05-10T18:42:22.316Z,92077.55
2023-05-10T18:44:50.490Z,92077.58
2023-05-10T18:47:18.732Z,92080.15
2023-05-10T18:49:46.962Z,92080.39
2023-05-10T18:52:16.206Z,92088.77
2023-05-10T18:54:44.308Z,92087.63
2023-05-10T18:57:12.761Z,92085.77
2023-05-10T18:59:40.920Z,92085.60
2023-05-10T19:02:09.085Z,92086.06
2023-05-10T19:04:37.274Z,92090.86
2023-05-10T19:07:05.394Z,92093.43
2023-05-10T19:09:33.562Z,92095.09
2023-05-10T19:12:01.652Z,92096.84
2023-05-10T19:14:29.844Z,92095.19
2023-05-10T19:16:59.131Z,92096.23
2023-05-10T19:19:27.787Z,92108.27
2023-05-10T19:21:56.463Z,92109.31
2023-05-10T19:24:25.887Z,92109.11
2023-05-10T19:26:55.880Z,92109.88
2023-05-10T19:29:25.754Z,92111.83
2023-05-10T19:31:54.824Z,92108.02
2023-05-10T19:34:23.197Z,92110.71
2023-05-10T19:36:51.520Z,92112.88
2023-05-10T19:39:19.685Z,92110.64
2023-05-10T19:41:49.867Z,92112.73
2023-05-10T19:44:18.268Z,92113.11
2023-05-10T19:46:46.310Z,92119.71
2023-05-10T19:49:14.539Z,92115.81
2023-05-10T19:51:42.745Z,92117.84
2023-05-10T19:54:10.913Z,92116.95
2023-05-10T19:56:38.979Z,92115.96
2023-05-10T19:59:07.942Z,92115.07
2023-05-10T20:01:36.328Z,92116.73
2023-05-10T20:04:04.542Z,92114.69
2023-05-10T20:06:33.128Z,92118.52
2023-05-10T20:09:01.177Z,92120.23
2023-05-10T20:11:29.278Z,92120.30
2023-05-10T20:13:57.336Z,92120.30
2023-05-10T20:16:26.876Z,92121.02
2023-05-10T20:18:55.180Z,92120.96
2023-05-10T20:21:24.129Z,92121.80
2023-05-10T20:23:52.485Z,92114.14
2023-05-10T20:26:21.757Z,92116.09
2023-05-10T20:28:50.965Z,92115.88
2023-05-10T20:31:19.031Z,92121.91
2023-05-10T20:33:47.173Z,92124.83
2023-05-10T20:36:15.229Z,92128.23
2023-05-10T20:38:43.290Z,92126.58
2023-05-10T20:41:11.381Z,92124.84
2023-05-10T20:43:39.408Z,92121.77
2023-05-10T20:46:07.953Z,92120.65
2023-05-10T20:48:36.116Z,92120.51
2023-05-10T20:51:04.213Z,92119.59
2023-05-10T20:53:32.323Z,92115.60
2023-05-10T20:56:00.352Z,92120.20
2023-05-10T20:58:28.372Z,92122.81
2023-05-10T21:00:56.401Z,92122.36
2023-05-10T21:03:24.519Z,92119.82
2023-05-10T21:05:52.700Z,92121.70
2023-05-10T21:08:20.875Z,92119.21
2023-05-10T21:10:48.971Z,92122.89
2023-05-10T21:13:17.261Z,92120.12
2023-05-10T21:15:45.486Z,92115.45
2023-05-10T21:18:13.645Z,92116.82
2023-05-10T21:20:41.841Z,92113.06
2023-05-10T21:23:09.937Z,92112.98
2023-05-10T21:25:37.994Z,92114.79
2023-05-10T21:28:06.332Z,92112.02
2023-05-10T21:30:34.606Z,92118.02
2023-05-10T21:33:03.730Z,92118.75
2023-05-10T21:35:32.013Z,92119.65
2023-05-10T21:37:59.979Z,92116.80
2023-05-10T21:40:28.791Z,92114.02
2023-05-10T21:42:57.003Z,92110.86
2023-05-10T21:45:25.106Z,92109.34
2023-05-10T21:47:53.275Z,92108.52
2023-05-10T21:50:21.537Z,92109.33
2023-05-10T21:52:49.626Z,92110.45
2023-05-10T21:55:18.368Z,92107.80
2023-05-10T21:57:46.841Z,92110.42
2023-05-10T22:00:16.563Z,92104.80
2023-05-10T22:02:45.146Z,92106.99
2023-05-10T22:05:13.281Z,92102.88
2023-05-10T22:07:41.381Z,92104.81
2023-05-10T22:10:09.809Z,92103.17
2023-05-10T22:12:38.030Z,92105.86
2023-05-10T22:15:10.489Z,92103.16
2023-05-10T22:17:40.068Z,92103.98
2023-05-10T22:20:08.710Z,92103.98
2023-05-10T22:22:36.951Z,92103.81
2023-05-10T22:25:06.299Z,92100.96
2023-05-10T22:27:34.459Z,92100.12
2023-05-10T22:30:03.244Z,92097.48
2023-05-10T22:32:31.877Z,92097.02
2023-05-10T22:35:00.169Z,92094.75
2023-05-10T22:37:28.246Z,92094.97
2023-05-10T22:39:56.514Z,92093.98
2023-05-10T22:42:24.581Z,92089.09
2023-05-10T22:44:52.642Z,92089.24
2023-05-10T22:47:20.737Z,92086.54
2023-05-10T22:49:49.121Z,92087.05
2023-05-10T22:52:17.195Z,92088.17
2023-05-10T22:54:45.244Z,92089.80
2023-05-10T22:57:13.427Z,92090.10
2023-05-10T22:59:42.481Z,92088.44
2023-05-10T23:02:10.846Z,92088.88
2023-05-10T23:04:39.027Z,92088.13
2023-05-10T23:07:07.257Z,92092.55
2023-05-10T23:09:35.262Z,92094.15
2023-05-10T23:12:03.367Z,92093.42
2023-05-10T23:14:31.402Z,92092.77
2023-05-10T23:16:59.491Z,92092.88
2023-05-10T23:19:27.612Z,92092.91
2023-05-10T23:21:55.734Z,92090.60
2023-05-10T23:24:23.787Z,92090.23
2023-05-10T23:26:52.058Z,92086.42
2023-05-10T23:29:20.280Z,92087.70
2023-05-10T23:31:49.250Z,92083.94
2023-05-10T23:34:17.671Z,92083.71
2023-05-10T23:36:45.786Z,92084.59
2023-05-10T23:39:13.827Z,92084.05
2023-05-10T23:41:42.787Z,92083.73
2023-05-10T23:44:10.903Z,92083.17
2023-05-10T23:46:39.018Z,92082.64
2023-05-10T23:49:07.186Z,92077.09
2023-05-10T23:51:35.278Z,92076.54
2023-05-10T23:54:03.564Z,92080.56
2023-05-10T23:56:31.702Z,92078.81
2023-05-10T23:58:59.833Z,92076.17
